Chandler, MN

11:31 AM CDT on July 13, 2014 (GMT -0500)
Glenwood Municipal (KGHW) Elev 1394 ft | 45.64 °N, 95.32 °W | Change Station

Current weather conditions updated 17 minutes ago

Clear
Clear
70 °F
Feels Like 70 °F
N
12
Wind Variable Wind from West

Today is forecast to be nearly the same temperature as yesterday.

Today
High -- | Low -- °F
--% Chance of Precip.
Yesterday
High -- | Low -- °F
Precip. -- in
5:53 AM 9:05 PM
Full, 98% visible
Pressure 30.00 in
Visibility 10.0 miles
Clouds Clear
Dew Point 54 °F
Humidity 56%
Rainfall 0.00 in
Snow Depth Not available.
UV 8 out of 12
Pollen 4.70 out of 12
Air Quality Not available.
Flu Activity Sporadic
METAR KGHW 131614Z AUTO 27010KT 10SM CLR 21/12 A3000 RMK AO2

More Conditions Fewer Conditions

Pressure 30.00 in
Visibility 10.0 miles
Clouds Clear
Dew Point 54 °F
Humidity 56%
Rainfall 0.00 in
Snow Depth Not available.
UV 8 out of 12
Pollen 4.70 out of 12
Air Quality Not available.
Flu Activity Sporadic
METAR KGHW 131614Z AUTO 27010KT 10SM CLR 21/12 A3000 RMK AO2

More Conditions Fewer Conditions

10-Day Weather Forecast

Almanac

Astronomy

Jul. 13, 2014 Rise Set
Actual Time 5:53 AM CDT 9:05 PM CDT
Civil Twilight 5:18 AM CDT 9:40 PM CDT
Nautical Twilight 4:32 AM CDT 10:25 PM CDT
Astronomical Twilight 3:37 AM CDT 11:20 PM CDT
Moon 9:48 PM CDT 7:30 AM CDT
Length of Visible Light 16h 21m
Length of Day
15h 11m
Tomorrow will be 1m 30s shorter.
Full, 98% of the Moon is Illuminated
Today
Full
Jul 18
Last Quarter
Jul 26
New
Aug 3
First Quarter
Aug 10
Full

Today's Extremes

State Highs State Lows

Community

WunderPhotos

Upload Photos

1,733,270 photos uploaded!

Nearby

Snow Depth

Station Depth Elevation
No new snow has been reported.

Earthquake Activity

City Distance Mag. Time & Date
No recent earthquake activity has been reported nearby.
Minimum magnitude displayed is 2.5.

Coastal Water Temperatures

Place Temperature
No Stations Reporting

Nearby Weather Stations

Station Location Temp. Heat Index Dew Point Humidity Wind Precip. Elev Updated Type
Chandler, MN 74.3 °F 77 °F 53 °F 48% South  at  11.0 mph 0.00 in / hr 1808 ft 11:29 AM CDT Normal
Bremer Pond, Hardwick, MN 75.4 °F 78 °F 58 °F 55% WNW  at  5.0 mph 0.00 in / hr 1486 ft 11:30 AM CDT Normal
RAWS REDSTN MN, Pipestone, MN 74 °F 77 °F 60 °F 61% NNW  at  4 mph 0.00 in / hr 1660 ft 10:21 AM CDT MADIS
Luverne, MN, Luverne, MN 75.6 °F 77 °F 66 °F 72% NW  at  5.1 mph 0.00 in / hr 1417 ft 11:30 AM CDT Normal
Rock Lake, Balaton, MN 73.8 °F 77 °F 58 °F 57% NW  at  2.9 mph 0.00 in / hr 1568 ft 11:31 AM CDT Rapid Fire

Show More Stations Show Fewer Stations